createdAt,value
2023-03-26T00:03:00.143Z,98584.31
2023-03-26T00:07:03.615Z,98583.69
2023-03-26T00:11:08.886Z,98583.59
2023-03-26T00:15:12.539Z,98581.81
2023-03-26T00:19:19.124Z,98575.94
2023-03-26T00:23:22.561Z,98582.16
2023-03-26T00:27:27.953Z,98578.03
2023-03-26T00:31:31.487Z,98580.28
2023-03-26T00:35:40.299Z,98579.59
2023-03-26T00:39:44.811Z,98579.13
2023-03-26T00:43:49.034Z,98572.06
2023-03-26T00:47:51.884Z,98563.31
2023-03-26T00:51:54.765Z,98565.13
2023-03-26T00:56:00.547Z,98563.56
2023-03-26T01:00:16.513Z,98557.53
2023-03-26T01:04:24.339Z,98557.88
2023-03-26T01:08:32.114Z,98561.03
2023-03-26T01:12:35.352Z,98550.34
2023-03-26T01:16:42.464Z,98553.59
2023-03-26T01:20:50.954Z,98543.00
2023-03-26T01:24:56.916Z,98544.16
2023-03-26T01:29:03.981Z,98545.53
2023-03-26T01:33:16.483Z,98541.78
2023-03-26T01:37:27.400Z,98541.66
2023-03-26T01:41:35.421Z,98533.72
2023-03-26T01:45:42.920Z,98527.31
2023-03-26T01:49:46.013Z,98527.19
2023-03-26T01:53:49.778Z,98521.97
2023-03-26T01:58:09.069Z,98511.94
2023-03-26T02:02:15.656Z,98511.59
2023-03-26T02:06:24.060Z,98504.47
2023-03-26T02:10:30.037Z,98506.16
2023-03-26T02:14:34.899Z,98503.47
2023-03-26T02:18:39.203Z,98509.00
2023-03-26T02:22:46.201Z,98509.31
2023-03-26T02:26:49.336Z,98513.59
2023-03-26T02:30:57.749Z,98506.66
2023-03-26T02:35:00.473Z,98499.81
2023-03-26T02:39:03.670Z,98509.88
2023-03-26T02:43:06.699Z,98495.41
2023-03-26T02:47:12.620Z,98483.75
2023-03-26T02:51:18.609Z,98484.38
2023-03-26T02:55:21.352Z,98487.59
2023-03-26T02:59:25.608Z,98492.75
2023-03-26T03:03:30.292Z,98494.94
2023-03-26T03:07:33.187Z,98489.84
2023-03-26T03:11:36.187Z,98493.34
2023-03-26T03:15:39.352Z,98488.78
2023-03-26T03:19:43.610Z,98488.16
2023-03-26T03:23:47.722Z,98494.44
2023-03-26T03:27:54.124Z,98485.44
2023-03-26T03:31:57.214Z,98497.91
2023-03-26T03:36:01.424Z,98485.97
2023-03-26T03:40:06.032Z,98492.59
2023-03-26T03:44:08.717Z,98494.25
2023-03-26T03:48:11.664Z,98497.63
2023-03-26T03:52:16.603Z,98502.53
2023-03-26T03:56:24.286Z,98501.19
2023-03-26T04:00:27.405Z,98495.47
2023-03-26T04:04:30.810Z,98495.50
2023-03-26T04:08:35.416Z,98486.81
2023-03-26T04:12:38.239Z,98485.03
2023-03-26T04:16:41.248Z,98499.81
2023-03-26T04:20:46.909Z,98493.59
2023-03-26T04:24:54.644Z,98493.91
2023-03-26T04:29:00.274Z,98488.25
2023-03-26T04:33:06.642Z,98486.25
2023-03-26T04:37:12.859Z,98488.63
2023-03-26T04:41:17.557Z,98473.91
2023-03-26T04:45:23.066Z,98471.69
2023-03-26T04:49:26.168Z,98481.00
2023-03-26T04:53:29.243Z,98481.59
2023-03-26T04:57:38.956Z,98481.91
2023-03-26T05:01:46.065Z,98474.34
2023-03-26T05:05:49.969Z,98476.59
2023-03-26T05:09:52.972Z,98477.03
2023-03-26T05:13:58.971Z,98480.88
2023-03-26T05:18:02.216Z,98467.22
2023-03-26T05:22:05.752Z,98475.34
2023-03-26T05:26:08.968Z,98474.56
2023-03-26T05:30:16.228Z,98486.88
2023-03-26T05:34:19.396Z,98480.88
2023-03-26T05:38:22.428Z,98476.41
2023-03-26T05:42:25.511Z,98478.91
2023-03-26T05:46:30.008Z,98488.47
2023-03-26T05:50:33.149Z,98489.16
2023-03-26T05:54:36.261Z,98489.84
2023-03-26T05:58:39.441Z,98479.78
2023-03-26T06:02:47.187Z,98477.84
2023-03-26T06:06:49.921Z,98490.81
2023-03-26T06:10:53.545Z,98485.94
2023-03-26T06:14:56.955Z,98486.97
2023-03-26T06:19:04.387Z,98485.53
2023-03-26T06:23:07.560Z,98486.59
2023-03-26T06:27:10.638Z,98477.19
2023-03-26T06:31:14.096Z,98496.91
2023-03-26T06:35:18.321Z,98486.78
2023-03-26T06:39:21.885Z,98500.13
2023-03-26T06:43:24.373Z,98498.44
2023-03-26T06:47:27.557Z,98486.63
2023-03-26T06:51:32.115Z,98491.75
2023-03-26T06:55:35.044Z,98482.59
2023-03-26T06:59:38.330Z,98490.28
2023-03-26T07:03:41.361Z,98490.63
2023-03-26T07:07:46.615Z,98483.75
2023-03-26T07:11:50.524Z,98481.09
2023-03-26T07:15:55.735Z,98486.56
2023-03-26T07:19:58.846Z,98481.66
2023-03-26T07:24:05.582Z,98482.94
2023-03-26T07:28:14.852Z,98485.59
2023-03-26T07:32:24.204Z,98480.84
2023-03-26T07:36:34.309Z,98483.22
2023-03-26T07:40:51.763Z,98482.06
2023-03-26T07:45:03.646Z,98478.00
2023-03-26T07:49:07.644Z,98476.56
2023-03-26T07:53:11.187Z,98478.38
2023-03-26T07:57:25.428Z,98472.81
2023-03-26T08:01:40.855Z,98481.25
2023-03-26T08:05:52.472Z,98476.63
2023-03-26T08:10:10.818Z,98472.75
2023-03-26T08:14:28.825Z,98475.00
2023-03-26T08:18:44.892Z,98471.53
2023-03-26T08:22:52.987Z,98464.63
2023-03-26T08:27:05.668Z,98473.06
2023-03-26T08:31:13.804Z,98469.19
2023-03-26T08:35:17.022Z,98461.75
2023-03-26T08:39:22.554Z,98461.94
2023-03-26T08:43:49.498Z,98463.06
2023-03-26T08:48:17.636Z,98461.63
2023-03-26T08:52:53.140Z,98468.59
2023-03-26T08:57:15.252Z,98463.88
2023-03-26T09:01:38.463Z,98456.38
2023-03-26T09:06:05.896Z,98459.63
2023-03-26T09:10:42.098Z,98462.63
2023-03-26T09:15:22.949Z,98454.63
2023-03-26T09:19:53.475Z,98453.59
2023-03-26T09:24:34.757Z,98457.72
2023-03-26T09:29:13.157Z,98451.91
2023-03-26T09:34:00.441Z,98456.91
2023-03-26T09:38:13.700Z,98452.03
2023-03-26T09:42:25.001Z,98471.88
2023-03-26T09:46:36.250Z,98484.72
2023-03-26T09:50:59.217Z,98472.41
2023-03-26T09:55:41.061Z,98461.38
2023-03-26T10:00:10.596Z,98450.97
2023-03-26T10:05:13.766Z,98458.47
2023-03-26T10:09:37.385Z,98463.47
2023-03-26T10:13:57.270Z,98449.13
2023-03-26T10:18:27.529Z,98446.28
2023-03-26T10:22:50.543Z,98446.00
2023-03-26T10:27:10.966Z,98440.34
2023-03-26T10:31:34.583Z,98443.69
2023-03-26T10:35:52.536Z,98446.41
2023-03-26T10:40:20.532Z,98437.31
2023-03-26T10:44:54.759Z,98429.53
2023-03-26T10:49:22.861Z,98429.63
2023-03-26T10:53:30.266Z,98428.56
2023-03-26T10:57:42.187Z,98425.69
2023-03-26T11:01:56.524Z,98426.59
2023-03-26T11:06:16.865Z,98429.94
2023-03-26T11:10:27.768Z,98418.03
2023-03-26T11:14:39.898Z,98428.50
2023-03-26T11:18:50.155Z,98423.72
2023-03-26T11:23:07.180Z,98423.06
2023-03-26T11:27:17.905Z,98426.91
2023-03-26T11:31:31.152Z,98423.03
2023-03-26T11:35:40.513Z,98427.38
2023-03-26T11:39:51.715Z,98428.84
2023-03-26T11:43:59.322Z,98433.41
2023-03-26T11:48:09.538Z,98440.25
2023-03-26T11:52:15.941Z,98432.25
2023-03-26T11:56:27.419Z,98432.56
2023-03-26T12:00:30.938Z,98431.88
2023-03-26T12:04:38.227Z,98432.69
2023-03-26T12:08:44.692Z,98425.16
2023-03-26T12:12:49.250Z,98427.31
2023-03-26T12:17:01.882Z,98419.50
2023-03-26T12:21:08.288Z,98426.13
2023-03-26T12:25:19.020Z,98426.72
2023-03-26T12:29:23.330Z,98422.50
2023-03-26T12:33:29.283Z,98421.09
2023-03-26T12:37:38.750Z,98417.53
2023-03-26T12:44:44.588Z,98418.19
2023-03-26T12:47:58.244Z,98446.22
2023-03-26T12:50:57.389Z,98441.91
2023-03-26T12:55:12.769Z,98436.97
2023-03-26T12:59:38.825Z,98430.41
2023-03-26T13:03:56.700Z,98429.16
2023-03-26T13:08:17.049Z,98441.78
2023-03-26T13:12:36.438Z,98433.88
2023-03-26T13:16:49.798Z,98435.56
2023-03-26T13:20:59.478Z,98437.75
2023-03-26T13:25:11.196Z,98427.59
2023-03-26T13:29:26.899Z,98433.97
2023-03-26T13:33:45.470Z,98421.06
2023-03-26T13:37:56.881Z,98429.69
2023-03-26T13:42:12.188Z,98422.88
2023-03-26T13:46:26.213Z,98421.97
2023-03-26T13:50:38.690Z,98426.31
2023-03-26T13:54:48.006Z,98426.09
2023-03-26T13:58:54.488Z,98428.47
2023-03-26T14:03:03.520Z,98418.44
2023-03-26T14:07:15.931Z,98423.19
2023-03-26T14:11:27.002Z,98424.69
2023-03-26T14:15:38.015Z,98423.88
2023-03-26T14:20:21.533Z,98424.44
2023-03-26T14:24:56.041Z,98440.41
2023-03-26T14:29:30.084Z,98430.56
2023-03-26T14:33:56.184Z,98414.28
2023-03-26T14:38:34.036Z,98421.22
2023-03-26T14:42:44.463Z,98422.75
2023-03-26T14:47:04.701Z,98421.63
2023-03-26T14:51:20.849Z,98405.28
2023-03-26T14:55:49.528Z,98405.41
2023-03-26T15:00:27.367Z,98399.56
2023-03-26T15:04:56.056Z,98410.38
2023-03-26T15:09:53.937Z,98403.47
2023-03-26T15:14:09.199Z,98408.28
2023-03-26T15:18:54.660Z,98415.50
2023-03-26T15:23:58.980Z,98411.38
2023-03-26T15:28:34.234Z,98415.09
2023-03-26T15:33:05.552Z,98413.41
2023-03-26T15:38:00.127Z,98411.50
2023-03-26T15:42:10.574Z,98415.97
2023-03-26T15:46:32.425Z,98418.00
2023-03-26T15:50:56.061Z,98422.84
2023-03-26T15:55:05.718Z,98418.34
2023-03-26T15:59:24.999Z,98413.03
2023-03-26T16:03:36.144Z,98413.47
2023-03-26T16:07:58.966Z,98419.50
2023-03-26T16:12:26.006Z,98426.66
2023-03-26T16:16:54.333Z,98424.41
2023-03-26T16:21:04.549Z,98431.03
2023-03-26T16:25:33.505Z,98424.59
2023-03-26T16:30:14.832Z,98430.22
2023-03-26T16:34:30.382Z,98429.00
2023-03-26T16:38:50.560Z,98428.69
2023-03-26T16:43:02.340Z,98429.09
2023-03-26T16:47:11.427Z,98433.66
2023-03-26T16:51:24.229Z,98446.41
2023-03-26T16:55:37.989Z,98447.72
2023-03-26T17:00:06.050Z,98450.84
2023-03-26T17:04:17.455Z,98452.63
2023-03-26T17:08:36.501Z,98446.28
2023-03-26T17:12:45.363Z,98461.78
2023-03-26T17:16:51.502Z,98461.06
2023-03-26T17:21:03.637Z,98455.03
2023-03-26T17:25:26.343Z,98466.28
2023-03-26T17:29:41.264Z,98459.56
2023-03-26T17:33:44.766Z,98467.19
2023-03-26T17:37:49.844Z,98462.69
2023-03-26T17:42:07.586Z,98461.56
2023-03-26T17:46:41.888Z,98467.47
2023-03-26T17:50:55.568Z,98459.84
2023-03-26T17:54:59.008Z,98467.44
2023-03-26T17:59:11.872Z,98469.16
2023-03-26T18:03:24.441Z,98465.34
2023-03-26T18:07:52.195Z,98468.28
2023-03-26T18:12:27.858Z,98462.09
2023-03-26T18:16:38.701Z,98470.00
2023-03-26T18:20:42.813Z,98457.19
2023-03-26T18:24:46.564Z,98462.69
2023-03-26T18:28:53.463Z,98473.25
2023-03-26T18:33:03.763Z,98462.31
2023-03-26T18:37:19.841Z,98463.63
2023-03-26T18:41:32.279Z,98457.88
2023-03-26T18:45:40.713Z,98462.75
2023-03-26T18:49:46.400Z,98459.13
2023-03-26T18:53:52.195Z,98456.41
2023-03-26T18:57:54.986Z,98447.38
2023-03-26T19:01:59.349Z,98439.94
2023-03-26T19:06:11.175Z,98432.78
2023-03-26T19:10:19.159Z,98427.47
2023-03-26T19:14:26.418Z,98440.22
2023-03-26T19:18:31.535Z,98430.44
2023-03-26T19:22:41.653Z,98435.44
2023-03-26T19:26:45.771Z,98429.09
2023-03-26T19:30:49.767Z,98418.78
2023-03-26T19:34:56.417Z,98426.41
2023-03-26T19:39:14.675Z,98413.50
2023-03-26T19:43:20.603Z,98415.34
2023-03-26T19:47:38.958Z,98412.00
2023-03-26T19:51:53.451Z,98400.63
2023-03-26T19:56:01.195Z,98404.53
2023-03-26T20:00:13.471Z,98406.09
2023-03-26T20:04:16.578Z,98397.16
2023-03-26T20:08:20.548Z,98391.66
2023-03-26T20:12:25.080Z,98396.28
2023-03-26T20:16:29.865Z,98399.91
2023-03-26T20:20:36.946Z,98391.50
2023-03-26T20:24:41.602Z,98386.56
2023-03-26T20:28:48.632Z,98386.09
2023-03-26T20:33:12.708Z,98386.34
2023-03-26T20:37:17.091Z,98384.28
2023-03-26T20:41:23.560Z,98380.06
2023-03-26T20:45:31.016Z,98393.34
2023-03-26T20:49:35.851Z,98378.34
2023-03-26T20:53:39.185Z,98386.81
2023-03-26T20:57:43.178Z,98384.34
2023-03-26T21:01:51.414Z,98391.69
2023-03-26T21:05:54.201Z,98389.41
2023-03-26T21:09:58.283Z,98394.50
2023-03-26T21:14:08.741Z,98390.84
2023-03-26T21:18:14.446Z,98382.69
2023-03-26T21:22:29.333Z,98382.41
2023-03-26T21:26:41.585Z,98390.13
2023-03-26T21:30:47.293Z,98390.38
2023-03-26T21:34:58.625Z,98385.47
2023-03-26T21:39:03.450Z,98373.66
2023-03-26T21:43:06.769Z,98374.41
2023-03-26T21:47:10.487Z,98368.16
2023-03-26T21:51:18.675Z,98371.94
2023-03-26T21:55:23.858Z,98367.06
2023-03-26T21:59:34.746Z,98358.47
2023-03-26T22:03:51.091Z,98361.00
2023-03-26T22:07:59.474Z,98360.72
2023-03-26T22:12:02.196Z,98363.50
2023-03-26T22:16:06.612Z,98374.47
2023-03-26T22:20:13.107Z,98375.75
2023-03-26T22:24:17.776Z,98370.06
2023-03-26T22:28:20.865Z,98368.06
2023-03-26T22:32:24.273Z,98359.31
2023-03-26T22:36:27.658Z,98355.72
2023-03-26T22:40:35.580Z,98363.78
2023-03-26T22:44:38.761Z,98353.09
2023-03-26T22:48:41.676Z,98346.00
2023-03-26T22:52:44.718Z,98342.03
2023-03-26T22:56:49.381Z,98349.28
2023-03-26T23:00:53.290Z,98347.13
2023-03-26T23:04:56.583Z,98349.81
2023-03-26T23:09:01.411Z,98346.50
2023-03-26T23:13:05.852Z,98338.03
2023-03-26T23:17:14.748Z,98340.06
2023-03-26T23:21:19.619Z,98342.28
2023-03-26T23:25:24.195Z,98344.34
2023-03-26T23:29:30.216Z,98353.28
2023-03-26T23:33:35.615Z,98357.16
2023-03-26T23:37:38.900Z,98353.34
2023-03-26T23:41:42.994Z,98363.75
2023-03-26T23:45:48.178Z,98358.47
2023-03-26T23:49:51.554Z,98341.88
2023-03-26T23:53:54.980Z,98341.53
2023-03-26T23:57:58.272Z,98338.78
